Time;durP1;ratioP1;P1;durP2;ratioP2;P2;SDS_P1;SDS_P2;PMS_P1;PMS_P2;Temp;Humidity;BMP_temperature;BMP_pressure;BME280_temperature;BME280_humidity;BME280_pressure;Samples;Min_cycle;Max_cycle;Signal;HPM_P1;HPM_P2
2021/11/29 00:00:46;;;;;;;38.45;6.47;;;;;;;19.22;59.10;99659.19;144993;591;6002;-78
2021/11/29 00:03:16;;;;;;;37.50;6.20;;;;;;;19.12;58.93;99633.97;144992;581;6002;-79
2021/11/29 00:05:42;;;;;;;30.80;6.12;;;;;;;19.18;59.14;99611.06;144992;631;6002;-77
2021/11/29 00:08:09;;;;;;;41.97;6.97;;;;;;;19.11;59.53;99612.09;144992;615;6002;-78
2021/11/29 00:10:36;;;;;;;43.38;6.47;;;;;;;19.07;59.72;99568.34;144992;589;6002;-78
2021/11/29 00:13:03;;;;;;;48.65;7.20;;;;;;;19.06;59.59;99556.09;144992;603;6002;-77
2021/11/29 00:15:30;;;;;;;42.33;7.00;;;;;;;19.14;59.03;99579.59;144992;565;6002;-77
2021/11/29 00:17:56;;;;;;;46.08;8.48;;;;;;;19.27;58.85;99590.69;144993;648;6002;-76
2021/11/29 00:20:23;;;;;;;53.40;8.35;;;;;;;19.31;58.57;99587.06;144993;614;6002;-78
2021/11/29 00:22:50;;;;;;;49.15;7.65;;;;;;;19.38;58.31;99592.16;144993;648;6002;-76
2021/11/29 00:25:18;;;;;;;50.12;8.90;;;;;;;19.42;58.68;99569.25;144993;634;6002;-77
2021/11/29 00:27:47;;;;;;;36.28;6.65;;;;;;;19.58;58.30;99586.41;144993;563;6002;-79
2021/11/29 00:30:15;;;;;;;56.05;9.02;;;;;;;19.60;58.51;99599.53;144993;643;6002;-79
2021/11/29 00:32:43;;;;;;;52.58;8.38;;;;;;;19.65;58.09;99589.75;144993;666;6002;-76
2021/11/29 00:35:11;;;;;;;55.28;8.55;;;;;;;19.77;57.82;99575.41;144993;641;6002;-77
2021/11/29 00:37:38;;;;;;;45.60;8.27;;;;;;;19.66;58.39;99569.53;144993;605;6002;-78
2021/11/29 00:40:08;;;;;;;58.42;7.80;;;;;;;19.55;58.51;99554.91;144993;579;6002;-78
2021/11/29 00:42:35;;;;;;;62.60;9.55;;;;;;;19.60;58.85;99569.69;144993;579;6002;-79
2021/11/29 00:45:04;;;;;;;53.28;8.73;;;;;;;19.66;58.66;99599.38;144993;569;6002;-77
2021/11/29 00:47:30;;;;;;;49.83;8.60;;;;;;;19.60;58.76;99583.72;144993;658;6002;-78
2021/11/29 00:49:56;;;;;;;71.28;9.77;;;;;;;19.65;58.68;99591.53;144993;659;6002;-78
2021/11/29 00:52:23;;;;;;;58.55;9.90;;;;;;;19.63;59.15;99593.31;144993;565;6003;-78
2021/11/29 00:54:49;;;;;;;58.78;9.80;;;;;;;19.61;59.24;99580.19;144993;574;6002;-77
2021/11/29 00:57:16;;;;;;;53.90;9.35;;;;;;;19.64;59.17;99582.72;144993;630;6002;-78
2021/11/29 00:59:46;;;;;;;54.83;9.43;;;;;;;19.59;59.88;99592.53;144993;608;6002;-76
2021/11/29 01:02:14;;;;;;;57.58;9.38;;;;;;;19.61;59.48;99581.94;144993;567;6002;-78
2021/11/29 01:04:41;;;;;;;65.87;9.63;;;;;;;19.68;59.93;99581.75;144993;597;6002;-78
2021/11/29 01:07:08;;;;;;;57.62;10.38;;;;;;;19.69;59.58;99582.63;144993;589;6002;-79
2021/11/29 01:09:35;;;;;;;75.82;10.15;;;;;;;19.68;59.67;99563.34;144993;790;6002;-78
2021/11/29 01:12:01;;;;;;;58.22;8.93;;;;;;;19.66;60.16;99548.47;144994;594;5002;-76
2021/11/29 01:14:28;;;;;;;62.67;9.63;;;;;;;19.60;60.81;99551.25;144993;599;5002;-78
2021/11/29 01:16:54;;;;;;;63.40;9.50;;;;;;;19.60;61.02;99585.47;144994;610;5002;-77
2021/11/29 01:19:21;;;;;;;58.10;10.13;;;;;;;19.50;61.34;99562.06;144994;626;5002;-79
2021/11/29 01:21:48;;;;;;;64.62;10.80;;;;;;;19.59;62.04;99563.56;144994;651;5002;-78
2021/11/29 01:24:14;;;;;;;66.60;10.10;;;;;;;19.57;61.90;99573.28;144994;656;5002;-77
2021/11/29 01:26:41;;;;;;;61.33;10.05;;;;;;;19.60;61.18;99591.63;144994;646;5002;-78
2021/11/29 01:29:08;;;;;;;68.18;10.35;;;;;;;19.57;61.37;99566.22;144994;607;5003;-76
2021/11/29 01:31:34;;;;;;;64.53;10.60;;;;;;;19.53;62.25;99575.09;144994;574;5002;-78
2021/11/29 01:34:01;;;;;;;57.70;10.45;;;;;;;19.53;62.13;99583.00;144994;619;5002;-79
2021/11/29 01:36:28;;;;;;;60.53;9.68;;;;;;;19.40;63.57;99589.47;144994;657;5002;-78
2021/11/29 01:38:54;;;;;;;58.03;10.35;;;;;;;19.45;63.16;99576.22;144994;573;5002;-79
2021/11/29 01:41:20;;;;;;;68.22;10.27;;;;;;;19.49;62.39;99570.84;144994;642;5002;-79
2021/11/29 01:43:48;;;;;;;65.43;10.40;;;;;;;19.49;62.31;99570.84;144994;589;5002;-79
2021/11/29 01:46:16;;;;;;;68.45;10.05;;;;;;;19.47;62.13;99570.03;144994;594;5002;-79
2021/11/29 01:48:44;;;;;;;70.00;11.45;;;;;;;19.62;61.32;99538.94;144994;606;5002;-78
2021/11/29 01:51:13;;;;;;;54.45;9.35;;;;;;;19.54;62.97;99532.09;144994;625;5002;-78
2021/11/29 01:53:40;;;;;;;57.42;10.65;;;;;;;19.52;62.12;99549.72;144994;565;5002;-78
2021/11/29 01:56:07;;;;;;;59.15;11.00;;;;;;;19.51;61.85;99537.44;144994;610;5002;-78
2021/11/29 01:58:36;;;;;;;57.78;11.15;;;;;;;19.51;62.39;99537.44;144994;691;5002;-77
2021/11/29 02:01:07;;;;;;;63.22;10.35;;;;;;;19.49;62.43;99520.84;144993;563;5002;-79
2021/11/29 02:03:34;;;;;;;61.30;11.60;;;;;;;19.43;63.27;99520.13;144994;671;5002;-78
2021/11/29 02:06:01;;;;;;;71.75;11.23;;;;;;;19.42;62.55;99513.97;144994;673;5002;-78
2021/11/29 02:08:28;;;;;;;67.37;10.63;;;;;;;19.36;62.79;99528.19;144994;613;5002;-79
2021/11/29 02:10:54;;;;;;;66.60;10.80;;;;;;;19.44;63.38;99522.72;144994;580;5002;-78
2021/11/29 02:13:21;;;;;;;68.20;11.57;;;;;;;19.40;63.07;99521.91;144994;655;5002;-77
2021/11/29 02:15:52;;;;;;;74.40;11.35;;;;;;;19.41;62.75;99514.91;144994;623;5002;-78
2021/11/29 02:18:28;;;;;;;68.40;11.57;;;;;;;19.39;63.59;99521.94;144994;577;5002;-79
2021/11/29 02:21:12;;;;;;;58.92;10.48;;;;;;;19.32;63.61;99533.56;144994;611;5002;-78
2021/11/29 02:23:50;;;;;;;72.30;11.63;;;;;;;19.33;62.70;99519.50;144993;569;5002;-78
2021/11/29 02:26:21;;;;;;;59.67;10.30;;;;;;;19.28;63.58;99513.47;144994;658;5002;-78
2021/11/29 02:28:57;;;;;;;71.12;11.60;;;;;;;19.26;63.56;99510.03;144994;568;5002;-78
2021/11/29 02:31:28;;;;;;;61.25;11.63;;;;;;;19.31;62.91;99502.88;144994;575;5002;-79
2021/11/29 02:33:55;;;;;;;70.12;11.57;;;;;;;19.30;63.37;99507.28;144994;651;5002;-78
2021/11/29 02:36:22;;;;;;;80.20;11.63;;;;;;;19.34;62.82;99497.53;144994;635;5003;-78
2021/11/29 02:38:48;;;;;;;78.40;12.70;;;;;;;19.24;62.78;99499.53;144994;571;5002;-78
2021/11/29 02:41:15;;;;;;;70.95;12.13;;;;;;;19.29;62.63;99502.91;144994;609;5002;-78
2021/11/29 02:43:42;;;;;;;64.90;11.52;;;;;;;19.29;62.74;99495.03;144994;596;5002;-77
2021/11/29 02:46:08;;;;;;;72.85;11.98;;;;;;;19.29;62.26;99494.16;144994;629;5002;-78
2021/11/29 02:48:53;;;;;;;55.90;10.65;;;;;;;19.25;63.15;99490.75;144994;644;5002;-85
2021/11/29 02:51:37;;;;;;;62.20;10.95;;;;;;;19.16;63.78;99489.19;144994;650;5002;-78
2021/11/29 02:54:20;;;;;;;59.37;11.60;;;;;;;19.08;64.27;99500.84;144994;577;5002;-77
2021/11/29 02:56:49;;;;;;;63.38;11.02;;;;;;;19.12;63.41;99503.34;144994;563;5002;-78
2021/11/29 02:59:20;;;;;;;68.07;10.93;;;;;;;19.13;63.56;99477.91;144994;633;5002;-77
2021/11/29 03:01:50;;;;;;;60.58;10.98;;;;;;;19.14;63.30;99483.13;144994;586;5002;-78
2021/11/29 03:04:22;;;;;;;74.35;10.65;;;;;;;19.17;63.45;99497.97;144994;551;5002;-78
2021/11/29 03:06:49;;;;;;;56.37;11.10;;;;;;;19.14;63.36;99488.38;144994;585;5002;-78
2021/11/29 03:09:16;;;;;;;57.13;11.07;;;;;;;19.13;63.40;99491.06;144994;580;5002;-77
2021/11/29 03:11:44;;;;;;;61.20;10.82;;;;;;;19.11;63.26;99496.34;144994;595;5002;-77
2021/11/29 03:14:10;;;;;;;68.10;12.70;;;;;;;19.09;63.52;99490.28;144994;565;5002;-78
2021/11/29 03:16:38;;;;;;;58.13;13.00;;;;;;;19.07;63.42;99476.28;144994;607;5002;-78
2021/11/29 03:19:05;;;;;;;52.95;12.13;;;;;;;19.03;63.80;99482.53;144994;569;5002;-77
2021/11/29 03:21:32;;;;;;;62.78;11.65;;;;;;;18.96;63.58;99491.47;144994;671;5002;-77
2021/11/29 03:24:02;;;;;;;55.63;10.63;;;;;;;18.92;63.91;99495.09;144994;574;5002;-77
2021/11/29 03:26:31;;;;;;;60.22;12.52;;;;;;;18.89;63.94;99497.78;144994;564;5002;-78
2021/11/29 03:28:59;;;;;;;60.80;12.55;;;;;;;18.85;64.47;99495.22;144994;598;5002;-78
2021/11/29 03:31:39;;;;;;;59.05;12.70;;;;;;;18.76;64.34;99498.03;144994;563;5002;-78
2021/11/29 03:34:39;;;;;;;;;;;;;;;;;;;;;
2021/11/29 03:37:10;;;;;;;49.75;10.15;;;;;;;18.66;67.91;99510.53;144994;592;5004;-78
2021/11/29 03:39:36;;;;;;;50.55;10.77;;;;;;;18.64;67.38;99501.81;144994;576;5004;-79
2021/11/29 03:42:05;;;;;;;66.50;12.45;;;;;;;18.58;65.26;99527.34;144994;652;5004;-78
2021/11/29 03:44:33;;;;;;;53.72;11.82;;;;;;;18.58;65.01;99524.72;144994;618;5004;-78
2021/11/29 03:47:02;;;;;;;57.05;11.85;;;;;;;18.57;64.83;99533.53;144994;621;5004;-78
2021/11/29 03:49:30;;;;;;;63.28;11.77;;;;;;;18.58;64.79;99535.22;144994;647;5004;-78
2021/11/29 03:51:56;;;;;;;58.03;11.60;;;;;;;18.58;64.83;99543.13;144994;608;5004;-76
2021/11/29 03:54:23;;;;;;;58.53;11.05;;;;;;;18.55;64.86;99545.81;144994;610;5004;-78
2021/11/29 03:56:51;;;;;;;53.00;10.88;;;;;;;18.52;64.59;99554.66;144994;655;5004;-78
2021/11/29 03:59:17;;;;;;;46.95;8.25;;;;;;;18.49;63.98;99549.44;144994;628;5004;-79
2021/11/29 04:01:45;;;;;;;49.47;8.60;;;;;;;18.37;62.52;99555.81;144994;562;5004;-79
2021/11/29 04:04:11;;;;;;;47.53;9.50;;;;;;;18.43;63.93;99566.19;144994;577;5004;-77
2021/11/29 04:06:39;;;;;;;44.13;9.35;;;;;;;18.43;63.94;99574.09;144994;596;5004;-78
2021/11/29 04:09:05;;;;;;;46.80;9.70;;;;;;;18.43;63.96;99587.22;144994;574;5004;-76
2021/11/29 04:11:32;;;;;;;40.28;9.57;;;;;;;18.43;63.61;99602.97;144994;579;5004;-77
2021/11/29 04:13:58;;;;;;;41.92;8.43;;;;;;;18.42;63.72;99603.91;144994;669;5004;-77
2021/11/29 04:16:25;;;;;;;48.85;8.73;;;;;;;18.45;63.29;99610.84;144994;611;5004;-78
2021/11/29 04:19:03;;;;;;;25.15;5.57;;;;;;;18.41;61.53;99594.28;144994;609;5004;-77
2021/11/29 04:21:29;;;;;;;19.85;3.78;;;;;;;18.46;61.98;99607.31;144994;594;5004;-79
2021/11/29 04:23:57;;;;;;;22.33;4.90;;;;;;;18.46;61.40;99609.94;144994;616;5004;-77
2021/11/29 04:26:24;;;;;;;19.73;3.20;;;;;;;18.56;61.28;99626.41;144994;567;5004;-77
2021/11/29 04:28:52;;;;;;;12.07;2.95;;;;;;;18.55;56.51;99611.50;144994;586;5004;-78
2021/11/29 04:31:19;;;;;;;12.65;3.00;;;;;;;18.55;60.20;99615.03;144994;576;5004;-80
2021/11/29 04:33:45;;;;;;;14.63;3.00;;;;;;;18.58;61.06;99606.19;144993;585;5004;-77
2021/11/29 04:36:12;;;;;;;11.40;2.72;;;;;;;18.59;60.35;99594.78;144994;594;5002;-76
2021/11/29 04:38:38;;;;;;;11.73;3.28;;;;;;;18.61;60.70;99590.34;144994;598;5002;-78
2021/11/29 04:41:05;;;;;;;12.35;3.20;;;;;;;18.63;61.19;99599.97;144994;641;5002;-78
2021/11/29 04:43:32;;;;;;;13.73;4.18;;;;;;;18.59;57.40;99607.94;144994;565;5002;-77
2021/11/29 04:45:58;;;;;;;8.93;2.03;;;;;;;18.51;58.72;99621.22;144994;581;5002;-78
2021/11/29 04:48:24;;;;;;;6.72;1.55;;;;;;;18.51;59.82;99623.00;144994;642;5002;-77
2021/11/29 04:50:51;;;;;;;9.95;1.98;;;;;;;18.51;59.33;99641.41;144994;587;5002;-79
2021/11/29 04:53:17;;;;;;;9.63;2.20;;;;;;;18.45;58.14;99645.88;144994;643;5002;-78
2021/11/29 04:55:44;;;;;;;10.63;2.10;;;;;;;18.45;58.70;99642.37;144994;582;5002;-78
2021/11/29 04:58:13;;;;;;;8.85;2.15;;;;;;;18.34;56.21;99647.84;144994;672;5002;-78
2021/11/29 05:00:40;;;;;;;8.18;2.50;;;;;;;18.32;58.59;99657.50;144994;603;5002;-79
2021/11/29 05:03:06;;;;;;;13.70;2.35;;;;;;;18.28;58.14;99650.59;144994;579;5002;-76
2021/11/29 05:05:37;;;;;;;6.05;1.50;;;;;;;18.18;57.36;99659.53;144994;601;5002;-79
2021/11/29 05:08:04;;;;;;;5.15;1.85;;;;;;;18.21;60.10;99667.34;144994;592;5002;-77
2021/11/29 05:10:31;;;;;;;6.40;1.52;;;;;;;18.18;57.97;99664.78;144994;667;5002;-79
2021/11/29 05:12:58;;;;;;;5.50;1.33;;;;;;;18.15;56.82;99660.47;144994;597;5002;-78
2021/11/29 05:15:24;;;;;;;4.60;1.30;;;;;;;18.17;56.82;99678.81;144994;648;5002;-78
2021/11/29 05:17:51;;;;;;;4.82;1.65;;;;;;;18.16;57.33;99671.81;144994;583;5002;-77
2021/11/29 05:20:17;;;;;;;2.65;1.20;;;;;;;18.09;58.47;99678.97;144994;565;5002;-79
2021/11/29 05:22:44;;;;;;;5.22;1.17;;;;;;;18.19;59.18;99687.53;144994;569;5002;-79
2021/11/29 05:25:10;;;;;;;3.42;0.88;;;;;;;18.18;58.88;99697.16;144994;609;5002;-80
2021/11/29 05:27:37;;;;;;;3.05;0.88;;;;;;;18.23;59.06;99703.22;144994;662;5002;-77
2021/11/29 05:30:05;;;;;;;3.17;0.85;;;;;;;18.21;57.83;99717.25;144994;586;5002;-80
2021/11/29 05:32:32;;;;;;;3.90;1.40;;;;;;;18.22;59.20;99719.00;144994;588;5002;-81
2021/11/29 05:35:00;;;;;;;3.22;1.33;;;;;;;18.25;59.14;99735.56;144994;563;5002;-80
2021/11/29 05:37:26;;;;;;;3.97;1.00;;;;;;;18.28;59.34;99745.16;144994;588;5002;-80
2021/11/29 05:39:54;;;;;;;3.72;1.20;;;;;;;18.30;59.01;99743.38;144994;582;5002;-80
2021/11/29 05:42:21;;;;;;;5.05;1.48;;;;;;;18.33;58.73;99748.56;144994;599;4565;-79
2021/11/29 05:44:50;;;;;;;5.78;1.60;;;;;;;18.33;59.06;99740.69;144994;566;4568;-79
2021/11/29 05:47:20;;;;;;;3.10;1.33;;;;;;;18.37;58.99;99736.25;144994;565;4572;-78
2021/11/29 05:49:47;;;;;;;5.18;1.25;;;;;;;18.34;56.39;99738.91;144993;564;6003;-80
2021/11/29 05:52:15;;;;;;;1.90;0.80;;;;;;;18.36;58.64;99745.00;144992;601;6002;-79
2021/11/29 05:54:47;;;;;;;4.53;1.40;;;;;;;18.35;58.94;99752.03;144992;613;6002;-81
2021/11/29 05:57:14;;;;;;;3.62;1.12;;;;;;;18.33;59.10;99753.81;144992;564;6002;-77
2021/11/29 05:59:41;;;;;;;4.30;1.00;;;;;;;18.30;58.17;99753.88;144992;586;6002;-80
2021/11/29 06:02:08;;;;;;;1.77;1.08;;;;;;;18.22;58.63;99761.03;144992;598;6002;-79
2021/11/29 06:04:34;;;;;;;3.37;1.00;;;;;;;18.12;55.69;99758.56;144992;581;6002;-79
2021/11/29 06:07:01;;;;;;;2.90;0.55;;;;;;;18.07;55.28;99765.66;144992;637;6002;-81
2021/11/29 06:09:27;;;;;;;2.25;0.80;;;;;;;18.01;57.62;99763.13;144992;602;6002;-83
2021/11/29 06:11:55;;;;;;;4.15;0.75;;;;;;;18.12;53.69;99763.81;144992;563;6002;-77
2021/11/29 06:14:21;;;;;;;3.55;0.70;;;;;;;18.52;53.78;99764.00;144992;614;6002;-79
2021/11/29 06:16:47;;;;;;;1.60;0.70;;;;;;;19.13;55.65;99783.88;144992;578;6002;-79
2021/11/29 06:19:17;;;;;;;2.60;0.60;;;;;;;19.84;53.22;99774.50;144992;592;6002;-78
2021/11/29 06:21:43;;;;;;;3.95;1.10;;;;;;;20.11;50.06;99780.87;144992;584;6002;-79
2021/11/29 06:24:09;;;;;;;4.55;1.20;;;;;;;20.50;52.68;99794.84;144992;655;6002;-76
2021/11/29 06:26:36;;;;;;;2.37;0.65;;;;;;;20.89;52.05;99806.16;144992;652;6002;-79
2021/11/29 06:29:03;;;;;;;4.32;0.90;;;;;;;21.08;50.89;99806.50;144991;567;6002;-79
2021/11/29 06:31:30;;;;;;;4.00;0.82;;;;;;;21.16;51.46;99820.34;144991;612;6002;-80
2021/11/29 06:33:56;;;;;;;2.60;0.50;;;;;;;20.58;43.72;99812.19;144992;627;6002;-79
2021/11/29 06:36:27;;;;;;;1.23;0.47;;;;;;;20.39;45.17;99832.87;144992;665;6002;-80
2021/11/29 06:39:00;;;;;;;3.47;0.80;;;;;;;20.69;48.30;99840.09;144992;581;6002;-78
2021/11/29 06:41:31;;;;;;;3.28;0.77;;;;;;;21.00;50.99;99845.44;144992;637;6002;-78
2021/11/29 06:43:58;;;;;;;1.35;0.60;;;;;;;21.25;51.74;99847.38;144992;574;6002;-78
2021/11/29 06:46:24;;;;;;;3.78;1.80;;;;;;;21.63;51.94;99863.94;144992;619;6002;-79
2021/11/29 06:48:52;;;;;;;2.22;0.98;;;;;;;21.85;46.31;99851.81;144992;604;6002;-79
2021/11/29 06:51:23;;;;;;;3.17;1.23;;;;;;;21.81;44.44;99868.69;144992;598;6002;-78
2021/11/29 06:53:50;;;;;;;5.85;1.90;;;;;;;22.25;51.03;99870.84;144992;580;6002;-78
2021/11/29 06:56:16;;;;;;;6.78;1.67;;;;;;;22.49;50.77;99886.84;144992;569;6002;-78
2021/11/29 06:58:43;;;;;;;2.33;1.48;;;;;;;22.69;50.72;99883.56;144992;565;6002;-81
2021/11/29 07:01:09;;;;;;;7.18;2.28;;;;;;;22.84;50.75;99890.97;144992;570;6002;-78
2021/11/29 07:03:36;;;;;;;6.57;1.52;;;;;;;22.40;42.74;99890.69;144992;624;6002;-79
2021/11/29 07:06:03;;;;;;;5.72;1.20;;;;;;;22.40;41.96;99888.03;144992;586;6002;-79
2021/11/29 07:08:30;;;;;;;4.15;1.40;;;;;;;22.61;48.44;99902.34;144992;586;6002;-78
2021/11/29 07:11:00;;;;;;;4.40;1.50;;;;;;;22.77;48.75;99900.91;144992;663;6002;-78
2021/11/29 07:13:27;;;;;;;2.08;0.80;;;;;;;22.79;44.60;99892.91;144992;587;6002;-79
2021/11/29 07:15:55;;;;;;;5.57;1.00;;;;;;;22.94;47.22;99872.97;144992;608;6002;-79
2021/11/29 07:18:22;;;;;;;4.50;0.98;;;;;;;23.10;46.09;99873.38;144992;586;6002;-79
2021/11/29 07:20:49;;;;;;;2.90;0.80;;;;;;;23.21;46.92;99867.66;144992;566;6002;-78
2021/11/29 07:23:16;;;;;;;5.20;1.12;;;;;;;23.40;47.42;99863.44;144992;668;6002;-80
2021/11/29 07:25:43;;;;;;;3.17;0.70;;;;;;;23.32;37.40;99839.00;144992;596;6002;-78
2021/11/29 07:28:10;;;;;;;4.47;1.70;;;;;;;23.10;36.06;99836.31;144992;591;6002;-78
2021/11/29 07:30:37;;;;;;;5.22;1.35;;;;;;;23.14;44.25;99848.50;144992;602;6002;-77
2021/11/29 07:33:04;;;;;;;2.70;1.10;;;;;;;22.64;38.77;99831.66;144992;573;6002;-79
2021/11/29 07:35:31;;;;;;;2.72;1.10;;;;;;;22.68;36.66;99834.22;144992;631;6002;-78
2021/11/29 07:37:58;;;;;;;5.80;1.20;;;;;;;22.74;41.58;99840.16;144991;585;6002;-79
2021/11/29 07:40:29;;;;;;;4.75;1.05;;;;;;;22.31;39.83;99832.81;144992;569;6002;-78
2021/11/29 07:43:04;;;;;;;2.62;1.15;;;;;;;22.56;37.00;99831.06;144992;607;6002;-78
2021/11/29 07:45:30;;;;;;;;;;;;;;;22.65;38.87;99837.81;144997;911;6001;-79
2021/11/29 07:47:56;;;;;;;2.92;1.10;;;;;;;22.71;39.50;99836.75;144997;563;6002;-78
2021/11/29 07:50:24;;;;;;;5.65;1.42;;;;;;;22.82;39.78;99850.47;144992;603;6002;-78
2021/11/29 07:52:50;;;;;;;2.95;1.33;;;;;;;22.59;35.33;99844.19;144992;634;6002;-80
2021/11/29 07:55:22;;;;;;;5.12;1.27;;;;;;;22.51;37.17;99846.25;144992;622;6002;-79
2021/11/29 07:57:49;;;;;;;3.00;1.02;;;;;;;22.81;37.64;99857.56;144992;608;6002;-78
2021/11/29 08:00:20;;;;;;;2.97;1.40;;;;;;;22.80;37.38;99863.75;144992;645;6002;-78
2021/11/29 08:02:49;;;;;;;5.07;1.40;;;;;;;22.89;36.56;99861.69;144992;569;6002;-80
2021/11/29 08:05:17;;;;;;;3.97;1.73;;;;;;;22.88;34.90;99865.28;144992;586;6002;-79
2021/11/29 08:07:46;;;;;;;3.35;1.40;;;;;;;23.08;34.66;99865.50;144992;606;6002;-79
2021/11/29 08:10:13;;;;;;;5.12;1.35;;;;;;;23.04;36.73;99862.97;144992;563;6002;-81
2021/11/29 08:12:39;;;;;;;2.67;1.20;;;;;;;23.21;35.60;99867.66;144992;585;6002;-80
2021/11/29 08:15:07;;;;;;;1.77;0.85;;;;;;;23.23;36.87;99876.44;144991;572;6002;-80
2021/11/29 08:17:34;;;;;;;2.85;1.20;;;;;;;22.96;36.37;99872.03;144992;655;6002;-80
2021/11/29 08:20:01;;;;;;;3.53;1.40;;;;;;;22.90;36.16;99887.25;144992;564;6002;-79
2021/11/29 08:22:29;;;;;;;7.40;3.05;;;;;;;22.64;34.23;99889.00;144992;615;6002;-79
2021/11/29 08:24:56;;;;;;;7.70;3.00;;;;;;;22.34;32.79;99881.16;144992;566;6002;-79
2021/11/29 08:27:22;;;;;;;7.55;1.85;;;;;;;22.74;36.01;99879.84;144992;565;6002;-79
2021/11/29 08:29:50;;;;;;;4.15;1.85;;;;;;;22.94;35.89;99880.91;144992;570;6002;-80
2021/11/29 08:32:17;;;;;;;2.78;1.12;;;;;;;23.11;34.62;99883.88;144992;605;6002;-80
2021/11/29 08:34:44;;;;;;;5.50;1.10;;;;;;;23.18;35.86;99869.53;144992;640;6002;-79
2021/11/29 08:37:12;;;;;;;5.37;1.40;;;;;;;22.77;35.37;99865.66;144992;575;6002;-79
2021/11/29 08:39:39;;;;;;;2.83;0.70;;;;;;;22.63;34.67;99861.66;144992;644;6002;-78
2021/11/29 08:42:06;;;;;;;4.68;1.55;;;;;;;22.69;35.50;99870.34;144992;616;6002;-79
2021/11/29 08:44:33;;;;;;;2.92;1.25;;;;;;;22.49;35.23;99855.97;144992;565;6002;-79
2021/11/29 08:47:01;;;;;;;3.08;0.90;;;;;;;22.39;35.67;99858.06;144992;574;6002;-79
2021/11/29 08:49:28;;;;;;;2.80;0.80;;;;;;;22.27;34.22;99842.56;144992;574;6002;-79
2021/11/29 08:51:58;;;;;;;3.00;1.17;;;;;;;22.48;35.39;99845.44;144992;574;6002;-79
2021/11/29 08:54:25;;;;;;;1.98;0.60;;;;;;;22.05;34.33;99842.41;144992;616;6002;-80
2021/11/29 08:56:52;;;;;;;1.80;0.90;;;;;;;22.03;34.48;99852.16;144992;573;6002;-79
2021/11/29 08:59:23;;;;;;;1.65;0.70;;;;;;;22.14;35.19;99842.09;144992;565;6002;-79
2021/11/29 09:01:52;;;;;;;2.25;1.00;;;;;;;22.36;34.94;99834.37;144992;577;6002;-80
2021/11/29 09:04:20;;;;;;;2.45;1.00;;;;;;;22.37;35.94;99828.19;144992;599;6012;-79
2021/11/29 09:06:49;;;;;;;1.75;0.82;;;;;;;22.38;34.39;99834.31;144992;565;6002;-80
2021/11/29 09:09:17;;;;;;;2.78;0.88;;;;;;;21.42;35.74;99849.56;144992;565;6002;-80
2021/11/29 09:11:44;;;;;;;1.92;0.80;;;;;;;21.76;36.22;99851.22;144992;581;6002;-78
2021/11/29 09:14:12;;;;;;;3.15;1.20;;;;;;;21.93;37.25;99833.06;144992;573;6002;-79
2021/11/29 09:16:39;;;;;;;1.65;1.10;;;;;;;22.34;37.37;99838.84;144992;594;6002;-79
2021/11/29 09:19:06;;;;;;;2.00;0.90;;;;;;;22.60;37.91;99815.94;144992;565;6002;-80
2021/11/29 09:21:33;;;;;;;1.95;1.40;;;;;;;22.48;36.67;99824.28;144992;569;6002;-80
2021/11/29 09:24:01;;;;;;;1.85;0.60;;;;;;;22.48;36.37;99838.41;144992;584;6002;-80
2021/11/29 09:26:27;;;;;;;3.72;2.50;;;;;;;22.72;36.09;99836.69;144992;602;6002;-79
2021/11/29 09:28:54;;;;;;;2.25;1.40;;;;;;;22.77;34.65;99836.53;144992;577;6002;-79
2021/11/29 09:31:21;;;;;;;4.72;1.98;;;;;;;22.79;36.02;99838.19;144992;625;6002;-77
2021/11/29 09:33:49;;;;;;;4.62;1.80;;;;;;;22.81;34.04;99831.09;144992;583;6002;-80
2021/11/29 09:36:16;;;;;;;1.98;1.15;;;;;;;22.62;34.91;99833.50;144992;621;6002;-78
2021/11/29 09:38:43;;;;;;;0.98;0.52;;;;;;;22.44;36.69;99832.34;144992;600;6002;-78
2021/11/29 09:41:19;;;;;;;3.40;0.50;;;;;;;22.42;39.57;99831.53;144992;597;6002;-79
2021/11/29 09:44:01;;;;;;;3.47;0.55;;;;;;;22.68;38.50;99836.84;144992;617;6002;-79
2021/11/29 09:46:31;;;;;;;2.25;0.70;;;;;;;22.74;39.08;99829.56;144992;576;6002;-78
2021/11/29 09:49:09;;;;;;;2.25;1.00;;;;;;;22.91;38.88;99823.69;144992;580;6002;-80
2021/11/29 09:51:37;;;;;;;3.22;1.30;;;;;;;23.01;39.17;99818.94;144992;584;6002;-80
2021/11/29 09:54:07;;;;;;;16.52;9.68;;;;;;;23.05;38.96;99819.69;144992;587;6002;-80
2021/11/29 09:56:34;;;;;;;7.18;1.55;;;;;;;22.74;38.82;99819.00;144992;648;6002;-79
2021/11/29 09:59:01;;;;;;;5.07;3.35;;;;;;;22.92;38.62;99811.31;144992;604;6002;-79
2021/11/29 10:01:29;;;;;;;3.22;1.90;;;;;;;22.73;38.04;99826.97;144992;587;6002;-79
2021/11/29 10:03:56;;;;;;;4.45;2.47;;;;;;;22.02;37.46;99809.00;144992;651;6002;-79
2021/11/29 10:06:23;;;;;;;3.05;1.48;;;;;;;21.75;38.78;99808.09;144992;576;6002;-78
2021/11/29 10:08:51;;;;;;;1.85;0.82;;;;;;;21.68;38.71;99803.91;144991;594;6002;-80
2021/11/29 10:11:24;;;;;;;2.85;0.73;;;;;;;22.05;37.81;99802.78;144992;570;6002;-80
2021/11/29 10:14:04;;;;;;;1.57;0.40;;;;;;;21.34;38.09;99821.59;144992;585;6002;-80
2021/11/29 10:16:57;;;;;;;1.42;0.60;;;;;;;21.51;38.47;99796.53;144992;605;6002;-82
2021/11/29 10:19:36;;;;;;;8.15;1.87;;;;;;;21.28;37.86;99815.63;144992;568;6004;-80
2021/11/29 10:22:18;;;;;;;3.00;0.90;;;;;;;21.91;37.77;99835.75;144992;612;6004;-79
2021/11/29 10:24:46;;;;;;;2.72;0.50;;;;;;;21.95;35.65;99814.53;144992;566;6004;-78
2021/11/29 10:27:13;;;;;;;2.05;1.20;;;;;;;21.69;37.35;99814.44;144992;569;6004;-79
2021/11/29 10:29:58;;;;;;;3.65;1.42;;;;;;;21.95;37.60;99809.25;144992;578;6004;-81
2021/11/29 10:32:36;;;;;;;4.47;1.55;;;;;;;22.21;37.91;99816.34;144992;601;6005;-79
2021/11/29 10:35:03;;;;;;;4.93;2.42;;;;;;;21.79;37.82;99830.00;144992;617;6004;-79
2021/11/29 10:37:41;;;;;;;1.65;0.80;;;;;;;22.01;36.74;99846.06;144992;584;6004;-78
2021/11/29 10:40:10;;;;;;;2.92;1.23;;;;;;;21.63;37.13;99845.44;144992;563;6005;-80
2021/11/29 10:42:39;;;;;;;4.60;2.80;;;;;;;21.91;37.27;99825.19;144991;603;6000;-79
2021/11/29 10:45:08;;;;;;;6.18;1.65;;;;;;;21.90;37.34;99820.84;144992;610;6002;-78
2021/11/29 10:47:35;;;;;;;5.85;1.80;;;;;;;21.73;37.46;99824.00;144992;645;6003;-77
2021/11/29 10:50:05;;;;;;;4.12;1.42;;;;;;;21.95;37.47;99838.31;144992;664;6009;-79
2021/11/29 10:52:35;;;;;;;5.82;1.20;;;;;;;21.87;37.54;99846.47;144992;629;6002;-80
2021/11/29 10:55:04;;;;;;;2.47;1.42;;;;;;;21.21;38.64;99851.88;144992;641;6002;-79
2021/11/29 10:57:31;;;;;;;3.17;1.83;;;;;;;21.33;38.90;99863.87;144992;587;6002;-80
2021/11/29 10:59:57;;;;;;;4.60;1.58;;;;;;;20.77;38.82;99859.22;144992;571;6002;-79
2021/11/29 11:02:30;;;;;;;3.67;2.00;;;;;;;20.71;39.61;99862.00;144992;580;6002;-80
2021/11/29 11:05:08;;;;;;;3.25;1.25;;;;;;;20.67;39.60;99863.87;144992;589;6002;-78
2021/11/29 11:07:37;;;;;;;4.65;2.97;;;;;;;20.93;39.67;99870.22;144992;581;6002;-77
2021/11/29 11:10:09;;;;;;;2.78;1.35;;;;;;;20.80;40.96;99861.78;144992;631;6002;-79
2021/11/29 11:12:36;;;;;;;2.40;0.65;;;;;;;21.11;41.01;99890.88;144992;603;6002;-79
2021/11/29 11:15:18;;;;;;;2.87;0.50;;;;;;;21.20;42.08;99893.25;144992;610;6002;-77
2021/11/29 11:17:53;;;;;;;1.30;0.50;;;;;;;21.42;42.09;99905.00;144992;591;6011;-79
2021/11/29 11:20:19;;;;;;;;;;;;;;;21.35;41.26;99909.59;144997;912;6002;-78
2021/11/29 11:22:49;;;;;;;2.08;0.60;;;;;;;21.29;41.64;99915.03;144997;603;6002;-77
2021/11/29 11:25:19;;;;;;;4.32;0.60;;;;;;;21.42;40.98;99915.56;144992;603;6002;-78
2021/11/29 11:28:00;;;;;;;2.25;0.50;;;;;;;21.32;41.54;99920.22;144992;605;6002;-76
2021/11/29 11:30:33;;;;;;;3.30;0.70;;;;;;;21.06;41.38;99913.00;144992;579;6002;-79
2021/11/29 11:33:08;;;;;;;1.05;0.40;;;;;;;21.14;41.05;99925.09;144992;576;6002;-79
2021/11/29 11:35:40;;;;;;;0.95;0.40;;;;;;;21.15;40.26;99916.25;144991;587;6002;-80
2021/11/29 11:38:11;;;;;;;3.78;0.40;;;;;;;21.15;40.51;99926.81;144992;600;6002;-90
2021/11/29 11:40:43;;;;;;;1.35;0.50;;;;;;;20.94;40.52;99925.59;144992;617;6002;-78
2021/11/29 11:43:12;;;;;;;3.58;0.50;;;;;;;21.15;40.58;99934.72;144992;569;6002;-77
2021/11/29 11:45:41;;;;;;;4.95;0.60;;;;;;;20.81;39.75;99948.78;144992;573;6002;-79